Time;durP1;ratioP1;P1;durP2;ratioP2;P2;SDS_P1;SDS_P2;PMS_P1;PMS_P2;Temp;Humidity;BMP_temperature;BMP_pressure;BME280_temperature;BME280_humidity;BME280_pressure;Samples;Min_cycle;Max_cycle;Signal;HPM_P1;HPM_P2
2023/05/17 00:00:08;;;;;;;15.65;2.65;;;10.00;99.90;;;;;;5052737;28;20037;-72
2023/05/17 00:02:34;;;;;;;17.02;3.00;;;10.00;99.90;;;;;;5052107;28;20056;-72
2023/05/17 00:05:00;;;;;;;15.43;3.28;;;10.00;99.90;;;;;;5042645;28;20037;-72
2023/05/17 00:07:25;;;;;;;12.18;2.50;;;10.00;99.90;;;;;;5032411;28;20037;-72
2023/05/17 00:09:51;;;;;;;10.52;2.47;;;9.90;99.90;;;;;;5032631;28;20440;-71
2023/05/17 00:12:17;;;;;;;18.15;3.28;;;9.90;99.90;;;;;;5033802;28;20121;-71
2023/05/17 00:14:42;;;;;;;17.98;3.13;;;9.80;99.90;;;;;;5037549;28;20507;-71
2023/05/17 00:17:08;;;;;;;14.43;2.63;;;9.80;99.90;;;;;;5032191;28;20080;-71
2023/05/17 00:19:33;;;;;;;14.27;3.00;;;9.80;99.90;;;;;;5016055;28;20397;-70
2023/05/17 00:21:59;;;;;;;14.80;3.30;;;9.80;99.90;;;;;;5033733;28;20045;-71
2023/05/17 00:24:26;;;;;;;17.10;3.13;;;9.80;99.90;;;;;;5050853;28;20052;-71
2023/05/17 00:26:51;;;;;;;17.35;2.88;;;9.80;99.90;;;;;;5035071;28;20064;-70
2023/05/17 00:29:17;;;;;;;16.45;3.60;;;9.70;99.90;;;;;;5052149;28;20166;-71
2023/05/17 00:31:42;;;;;;;14.63;2.85;;;9.70;99.90;;;;;;5052377;28;20386;-71
2023/05/17 00:34:08;;;;;;;13.40;2.55;;;9.70;99.90;;;;;;5044684;28;20048;-71
2023/05/17 00:36:34;;;;;;;11.70;2.50;;;9.70;99.90;;;;;;5049842;28;20558;-72
2023/05/17 00:38:59;;;;;;;16.67;3.10;;;9.70;99.90;;;;;;5051596;28;20041;-72
2023/05/17 00:41:25;;;;;;;13.48;2.75;;;9.70;99.90;;;;;;5052047;28;20119;-71
2023/05/17 00:43:50;;;;;;;17.30;2.90;;;9.60;99.90;;;;;;5067815;28;20409;-72
2023/05/17 00:46:16;;;;;;;13.88;2.75;;;9.60;99.90;;;;;;5068672;28;20073;-72
2023/05/17 00:48:42;;;;;;;15.02;2.72;;;9.50;99.90;;;;;;5038369;28;20494;-72
2023/05/17 00:51:08;;;;;;;11.15;2.28;;;9.40;99.90;;;;;;5066405;28;20043;-73
2023/05/17 00:53:36;;;;;;;11.02;2.55;;;9.40;99.90;;;;;;5068834;28;20060;-72
2023/05/17 00:56:02;;;;;;;15.57;2.92;;;9.40;99.90;;;;;;5052132;28;20049;-72
2023/05/17 00:58:29;;;;;;;14.13;2.58;;;9.30;99.90;;;;;;5048793;28;20072;-71
2023/05/17 01:00:55;;;;;;;14.32;2.80;;;9.20;99.90;;;;;;5046077;28;20143;-71
2023/05/17 01:03:23;;;;;;;13.90;2.50;;;9.10;99.90;;;;;;5045176;28;20045;-72
2023/05/17 01:05:50;;;;;;;13.63;2.70;;;9.10;99.90;;;;;;5055953;28;20552;-72
2023/05/17 01:08:16;;;;;;;12.15;2.80;;;9.10;99.90;;;;;;5052138;28;20029;-72
2023/05/17 01:10:47;;;;;;;15.90;2.83;;;9.10;99.90;;;;;;5039548;28;20699;-73
2023/05/17 01:13:28;;;;;;;11.77;2.53;;;9.00;99.90;;;;;;5054805;28;20095;-73
2023/05/17 01:16:20;;;;;;;10.60;2.60;;;9.10;99.90;;;;;;5053175;28;20084;-71
2023/05/17 01:18:57;;;;;;;;;;;9.10;99.90;;;;;;5038497;28;20132;-71
2023/05/17 01:21:36;;;;;;;16.35;2.80;;;9.10;99.90;;;;;;5025797;28;19962;-72
2023/05/17 01:24:27;;;;;;;13.93;3.08;;;9.10;99.90;;;;;;5059574;28;20045;-72
2023/05/17 01:26:53;;;;;;;14.93;2.65;;;9.20;99.90;;;;;;5059428;28;20043;-72
2023/05/17 01:29:24;;;;;;;16.75;3.25;;;9.20;99.90;;;;;;5073756;28;20486;-72
2023/05/17 01:31:51;;;;;;;15.65;2.97;;;9.20;99.90;;;;;;5057273;28;20041;-72
2023/05/17 01:34:27;;;;;;;19.10;3.55;;;9.30;99.90;;;;;;5059555;28;20041;-72
2023/05/17 01:36:53;;;;;;;19.40;2.72;;;9.40;99.90;;;;;;5058659;28;20063;-72
2023/05/17 01:39:19;;;;;;;15.30;2.67;;;9.30;99.90;;;;;;5057628;28;20370;-73
2023/05/17 01:41:52;;;;;;;12.45;2.40;;;9.30;99.90;;;;;;5046524;28;20041;-73
2023/05/17 01:44:27;;;;;;;15.95;2.70;;;9.30;99.90;;;;;;5037890;28;20128;-72
2023/05/17 01:46:59;;;;;;;16.92;3.20;;;9.30;99.90;;;;;;5069318;28;20048;-72
2023/05/17 01:49:37;;;;;;;12.82;2.53;;;9.30;99.90;;;;;;5074849;28;20112;-72
2023/05/17 01:52:30;;;;;;;15.57;2.55;;;9.20;99.90;;;;;;5057149;28;20053;-72
2023/05/17 01:55:32;;;;;;;12.20;2.15;;;9.20;99.90;;;;;;5073129;28;20048;-72
2023/05/17 01:58:00;;;;;;;14.93;3.27;;;9.20;99.90;;;;;;5059411;28;20055;-72
2023/05/17 02:00:28;;;;;;;14.27;3.17;;;9.20;99.90;;;;;;5057442;28;20396;-72
2023/05/17 02:02:54;;;;;;;13.48;3.55;;;9.10;99.90;;;;;;5039376;28;20469;-72
2023/05/17 02:05:19;;;;;;;12.15;3.83;;;9.10;99.90;;;;;;5040772;28;20045;-74
2023/05/17 02:07:45;;;;;;;16.38;2.90;;;9.10;99.90;;;;;;5037972;28;20119;-70
2023/05/17 02:10:11;;;;;;;17.73;2.85;;;9.10;99.90;;;;;;5055692;28;20041;-71
2023/05/17 02:12:36;;;;;;;14.98;2.85;;;9.00;99.90;;;;;;5057392;28;20045;-71
2023/05/17 02:15:02;;;;;;;15.10;2.58;;;9.00;99.90;;;;;;5057775;28;20086;-71
2023/05/17 02:17:28;;;;;;;13.48;2.42;;;9.00;99.90;;;;;;5047601;28;20120;-73
2023/05/17 02:19:53;;;;;;;13.82;2.88;;;8.90;99.90;;;;;;5034094;28;20049;-72
2023/05/17 02:22:19;;;;;;;14.82;4.35;;;8.90;99.90;;;;;;5035276;28;20545;-72
2023/05/17 02:24:45;;;;;;;16.42;3.40;;;8.90;99.90;;;;;;5034769;28;20041;-72
2023/05/17 02:27:11;;;;;;;11.25;2.33;;;8.90;99.90;;;;;;5034612;28;20041;-73
2023/05/17 02:29:36;;;;;;;15.35;2.28;;;8.90;99.90;;;;;;5034439;28;20195;-72
2023/05/17 02:32:02;;;;;;;13.85;2.60;;;8.90;99.90;;;;;;5029306;28;20052;-72
2023/05/17 02:34:27;;;;;;;11.25;2.15;;;8.80;99.90;;;;;;5055507;28;20033;-72
2023/05/17 02:36:53;;;;;;;14.30;3.45;;;8.80;99.90;;;;;;5040858;28;20049;-72
2023/05/17 02:39:19;;;;;;;12.77;2.15;;;8.80;99.90;;;;;;5035788;28;20199;-72
2023/05/17 02:41:44;;;;;;;16.08;2.67;;;8.80;99.90;;;;;;5026639;28;20049;-72
2023/05/17 02:44:10;;;;;;;14.32;2.65;;;8.70;99.90;;;;;;5055406;28;20484;-72
2023/05/17 02:46:35;;;;;;;15.13;2.85;;;8.70;99.90;;;;;;5054151;28;20041;-72
2023/05/17 02:49:01;;;;;;;12.82;2.13;;;8.60;99.90;;;;;;5054472;28;20136;-72
2023/05/17 02:51:26;;;;;;;16.67;2.58;;;8.60;99.90;;;;;;5049360;28;20409;-72
2023/05/17 02:53:52;;;;;;;14.35;3.40;;;8.60;99.90;;;;;;5034032;28;20052;-72
2023/05/17 02:56:17;;;;;;;13.88;2.55;;;8.60;99.90;;;;;;5050669;28;20049;-72
2023/05/17 02:58:43;;;;;;;11.10;2.45;;;8.60;99.90;;;;;;5036646;28;20037;-71
2023/05/17 03:01:09;;;;;;;10.52;1.80;;;8.50;99.90;;;;;;5054304;28;20076;-71
2023/05/17 03:03:34;;;;;;;12.65;2.85;;;8.50;99.90;;;;;;5052936;28;20048;-71
2023/05/17 03:06:01;;;;;;;11.48;2.60;;;8.50;99.90;;;;;;5037097;28;20037;-71
2023/05/17 03:08:26;;;;;;;12.75;2.28;;;8.60;99.90;;;;;;5055175;28;20048;-72
2023/05/17 03:10:52;;;;;;;14.35;2.70;;;8.60;99.90;;;;;;5054066;28;20393;-72
2023/05/17 03:13:18;;;;;;;11.15;3.22;;;8.60;99.90;;;;;;5053856;28;20040;-72
2023/05/17 03:15:43;;;;;;;13.50;2.38;;;8.60;99.90;;;;;;5053574;28;20052;-72
2023/05/17 03:18:09;;;;;;;11.98;2.53;;;8.60;99.90;;;;;;5053802;28;20048;-72
2023/05/17 03:20:34;;;;;;;16.52;2.50;;;8.60;99.90;;;;;;5053061;28;20124;-72
2023/05/17 03:23:00;;;;;;;14.98;2.78;;;8.60;99.90;;;;;;5034574;28;20383;-72
2023/05/17 03:25:26;;;;;;;13.23;1.95;;;8.70;99.90;;;;;;5033495;28;20049;-72
2023/05/17 03:27:51;;;;;;;15.07;2.42;;;8.70;99.90;;;;;;5034820;28;20409;-72
2023/05/17 03:30:17;;;;;;;14.60;2.60;;;8.70;99.90;;;;;;5032870;28;20045;-72
2023/05/17 03:32:44;;;;;;;13.90;2.40;;;8.70;99.90;;;;;;5034003;28;20112;-72
2023/05/17 03:35:10;;;;;;;9.75;2.28;;;8.70;99.90;;;;;;5033620;28;20371;-72
2023/05/17 03:37:35;;;;;;;12.75;2.05;;;8.80;99.90;;;;;;5049785;28;20048;-72
2023/05/17 03:40:01;;;;;;;12.90;2.45;;;8.80;99.90;;;;;;5016781;28;20049;-72
2023/05/17 03:42:27;;;;;;;10.18;2.00;;;8.80;99.90;;;;;;5032516;28;20128;-71
2023/05/17 03:44:53;;;;;;;12.10;1.90;;;8.80;99.90;;;;;;5053076;28;20041;-71
2023/05/17 03:47:22;;;;;;;8.38;1.58;;;8.80;99.90;;;;;;5052544;28;20045;-71
2023/05/17 03:49:48;;;;;;;10.45;1.95;;;8.80;99.90;;;;;;5054384;28;20037;-71
2023/05/17 03:52:13;;;;;;;11.70;2.10;;;8.80;99.90;;;;;;5051956;28;20055;-71
2023/05/17 03:54:39;;;;;;;13.27;2.55;;;8.90;99.90;;;;;;5054096;28;20405;-71
2023/05/17 03:57:05;;;;;;;9.48;2.33;;;8.90;99.90;;;;;;5052862;28;20040;-71
2023/05/17 03:59:30;;;;;;;12.88;2.00;;;8.90;99.90;;;;;;5051518;28;20040;-71
2023/05/17 04:01:56;;;;;;;13.05;2.45;;;8.90;99.90;;;;;;5049580;28;20093;-71
2023/05/17 04:04:21;;;;;;;11.88;2.00;;;8.80;99.90;;;;;;5052554;28;20045;-71
2023/05/17 04:06:47;;;;;;;15.00;2.63;;;8.70;99.90;;;;;;5054063;28;20401;-71
2023/05/17 04:09:14;;;;;;;12.35;2.25;;;8.70;99.90;;;;;;5052644;28;20041;-71
2023/05/17 04:11:40;;;;;;;11.18;1.95;;;8.70;99.90;;;;;;5035119;28;20037;-72
2023/05/17 04:14:06;;;;;;;11.80;2.15;;;8.70;99.90;;;;;;5052464;28;20090;-71
2023/05/17 04:16:32;;;;;;;13.35;2.00;;;8.70;99.90;;;;;;5051729;28;20120;-71
2023/05/17 04:18:59;;;;;;;15.40;2.53;;;8.70;99.90;;;;;;5052781;28;20037;-71
2023/05/17 04:21:25;;;;;;;11.55;4.07;;;8.60;99.90;;;;;;5048284;28;20073;-71
2023/05/17 04:23:51;;;;;;;12.60;1.92;;;8.70;99.90;;;;;;5032339;28;20077;-71
2023/05/17 04:26:16;;;;;;;10.00;1.88;;;8.70;99.90;;;;;;5045117;28;20052;-71
2023/05/17 04:28:42;;;;;;;6.63;1.20;;;8.60;99.90;;;;;;5051249;28;20037;-71
2023/05/17 04:31:08;;;;;;;11.85;1.40;;;8.60;99.90;;;;;;5051402;28;20040;-72
2023/05/17 04:33:35;;;;;;;10.07;2.00;;;8.70;99.90;;;;;;5047837;28;20064;-71
2023/05/17 04:36:01;;;;;;;10.63;1.55;;;8.70;99.90;;;;;;5032148;28;20082;-71
2023/05/17 04:38:27;;;;;;;10.52;1.60;;;8.70;99.90;;;;;;5032239;28;20045;-72
2023/05/17 04:40:53;;;;;;;10.60;2.10;;;8.80;99.90;;;;;;5034680;28;20049;-71
2023/05/17 04:43:18;;;;;;;9.73;1.48;;;8.80;99.90;;;;;;5050668;28;20099;-71
2023/05/17 04:45:44;;;;;;;10.82;1.88;;;8.80;99.90;;;;;;5053058;28;20037;-71
2023/05/17 04:48:10;;;;;;;11.88;1.92;;;8.80;99.90;;;;;;5050853;28;20044;-71
2023/05/17 04:50:36;;;;;;;12.45;1.80;;;8.80;99.90;;;;;;5047359;28;20081;-71
2023/05/17 04:53:02;;;;;;;7.95;1.40;;;8.80;99.90;;;;;;5031487;28;20088;-71
2023/05/17 04:55:27;;;;;;;9.50;2.10;;;8.80;99.90;;;;;;5015463;28;20048;-72
2023/05/17 04:57:53;;;;;;;10.40;1.48;;;8.80;99.90;;;;;;5045357;28;20110;-71
2023/05/17 05:00:21;;;;;;;6.68;1.45;;;8.80;99.90;;;;;;5032548;28;20052;-71
2023/05/17 05:02:47;;;;;;;10.98;2.17;;;8.80;99.90;;;;;;5033228;28;20045;-71
2023/05/17 05:05:12;;;;;;;10.88;1.45;;;8.80;99.90;;;;;;5031585;28;20041;-71
2023/05/17 05:07:38;;;;;;;7.07;1.58;;;8.90;99.90;;;;;;5067970;28;20441;-72
2023/05/17 05:10:05;;;;;;;9.55;1.60;;;8.90;99.90;;;;;;5035133;28;20032;-72
2023/05/17 05:12:31;;;;;;;9.52;1.80;;;9.00;99.90;;;;;;5034120;28;20041;-71
2023/05/17 05:14:56;;;;;;;11.50;1.60;;;9.00;99.90;;;;;;5051864;28;20401;-72
2023/05/17 05:17:22;;;;;;;12.07;1.42;;;9.00;99.90;;;;;;5051724;28;20063;-71
2023/05/17 05:19:47;;;;;;;9.05;1.20;;;9.00;99.90;;;;;;5044645;28;20434;-72
2023/05/17 05:22:13;;;;;;;11.05;1.88;;;9.00;99.90;;;;;;5033158;28;20038;-72
2023/05/17 05:24:38;;;;;;;15.35;3.20;;;9.10;99.90;;;;;;5032793;28;20056;-72
2023/05/17 05:27:04;;;;;;;9.40;1.40;;;9.20;99.90;;;;;;5041602;28;20073;-72
2023/05/17 05:29:30;;;;;;;7.82;1.30;;;9.30;99.90;;;;;;5051705;28;20421;-72
2023/05/17 05:31:55;;;;;;;6.75;1.40;;;9.30;99.90;;;;;;5052975;28;20041;-72
2023/05/17 05:34:21;;;;;;;9.45;1.20;;;9.40;99.90;;;;;;5039491;28;20037;-72
2023/05/17 05:36:46;;;;;;;8.65;1.10;;;9.40;99.90;;;;;;5032697;28;20383;-72
2023/05/17 05:39:12;;;;;;;5.63;1.10;;;9.40;99.90;;;;;;5048107;28;20077;-72
2023/05/17 05:41:38;;;;;;;9.10;1.20;;;9.40;99.90;;;;;;5047393;28;20047;-73
2023/05/17 05:44:03;;;;;;;6.63;1.42;;;9.30;99.90;;;;;;5068150;28;20130;-73
2023/05/17 05:46:29;;;;;;;6.80;1.30;;;9.40;99.90;;;;;;5062771;28;20042;-72
2023/05/17 05:48:55;;;;;;;6.13;1.30;;;9.40;99.90;;;;;;5031546;28;20038;-72
2023/05/17 05:51:20;;;;;;;9.85;1.50;;;9.40;99.90;;;;;;5031435;28;20044;-72
2023/05/17 05:53:46;;;;;;;13.05;1.88;;;9.40;99.90;;;;;;5033123;28;20049;-73
2023/05/17 05:56:11;;;;;;;9.20;1.55;;;9.40;99.90;;;;;;5034962;28;20052;-73
2023/05/17 05:58:37;;;;;;;10.27;1.23;;;9.50;99.90;;;;;;5051652;28;20467;-73
2023/05/17 06:01:03;;;;;;;7.43;1.52;;;9.40;99.90;;;;;;5043052;28;20048;-73
2023/05/17 06:03:28;;;;;;;9.63;1.30;;;9.40;99.90;;;;;;5054953;28;20076;-73
2023/05/17 06:05:54;;;;;;;8.32;1.42;;;9.40;99.90;;;;;;5052703;28;20053;-72
2023/05/17 06:08:20;;;;;;;6.88;1.23;;;9.50;99.90;;;;;;5039688;28;20504;-72
2023/05/17 06:10:45;;;;;;;8.45;1.58;;;9.50;99.90;;;;;;5056096;28;20041;-72
2023/05/17 06:13:11;;;;;;;10.48;1.85;;;9.60;99.90;;;;;;5046911;28;20131;-73
2023/05/17 06:15:37;;;;;;;8.05;1.48;;;9.60;99.90;;;;;;5053741;28;20123;-72
2023/05/17 06:18:02;;;;;;;11.32;1.73;;;9.70;99.90;;;;;;5036411;28;20128;-73
2023/05/17 06:20:28;;;;;;;12.23;1.95;;;9.80;99.90;;;;;;5046625;28;20037;-72
2023/05/17 06:22:54;;;;;;;12.68;1.90;;;9.80;99.90;;;;;;5051199;28;20041;-73
2023/05/17 06:25:19;;;;;;;11.55;1.60;;;9.90;99.90;;;;;;5035282;28;20116;-73
2023/05/17 06:27:45;;;;;;;12.18;1.85;;;10.10;99.90;;;;;;5045847;28;20048;-73
2023/05/17 06:30:11;;;;;;;10.00;1.92;;;10.10;99.90;;;;;;5049553;28;20036;-73
2023/05/17 06:32:37;;;;;;;10.82;1.85;;;10.10;99.90;;;;;;5034133;28;20049;-72
2023/05/17 06:35:02;;;;;;;12.48;1.75;;;10.10;99.90;;;;;;5039255;28;20033;-72
2023/05/17 06:37:28;;;;;;;11.90;2.42;;;10.00;99.90;;;;;;5053509;28;20508;-73
2023/05/17 06:40:05;;;;;;;9.25;1.95;;;10.10;99.90;;;;;;5053488;28;20474;-73
2023/05/17 06:42:31;;;;;;;17.08;2.47;;;10.00;99.90;;;;;;5038330;28;20119;-73
2023/05/17 06:44:57;;;;;;;8.65;1.40;;;10.00;99.90;;;;;;5053385;28;20402;-72
2023/05/17 06:47:23;;;;;;;11.77;2.10;;;10.10;99.90;;;;;;5031566;28;20048;-73
2023/05/17 06:49:49;;;;;;;12.45;1.92;;;10.10;99.90;;;;;;5045808;28;20045;-73
2023/05/17 06:52:14;;;;;;;13.20;2.05;;;10.10;99.90;;;;;;5039302;28;20056;-73
2023/05/17 06:54:40;;;;;;;16.52;2.80;;;10.20;99.90;;;;;;5049820;28;20048;-73
2023/05/17 06:57:08;;;;;;;10.88;1.95;;;10.10;99.90;;;;;;5042329;28;20090;-73
2023/05/17 06:59:37;;;;;;;11.07;2.10;;;10.10;99.90;;;;;;5036710;28;20037;-73
2023/05/17 07:02:02;;;;;;;10.48;1.95;;;10.10;99.90;;;;;;5040351;28;20045;-73
2023/05/17 07:04:28;;;;;;;13.55;2.30;;;10.10;99.90;;;;;;5049999;28;20040;-73
2023/05/17 07:06:54;;;;;;;13.60;2.00;;;10.00;99.90;;;;;;5040431;28;20494;-73
2023/05/17 07:09:20;;;;;;;10.18;2.17;;;9.90;99.90;;;;;;5043820;28;20072;-73
2023/05/17 07:11:46;;;;;;;12.90;2.20;;;9.90;99.90;;;;;;5046192;28;20041;-73
2023/05/17 07:14:12;;;;;;;15.02;1.90;;;9.90;99.90;;;;;;5032955;28;20048;-73
2023/05/17 07:16:38;;;;;;;14.70;2.97;;;9.90;99.90;;;;;;5066649;28;20040;-73
2023/05/17 07:19:03;;;;;;;11.15;1.98;;;9.80;99.90;;;;;;5050147;28;20067;-73
2023/05/17 07:21:30;;;;;;;14.18;1.92;;;9.90;99.90;;;;;;5040184;28;20045;-73
2023/05/17 07:23:55;;;;;;;15.98;2.28;;;9.90;99.90;;;;;;5037695;28;20041;-73
2023/05/17 07:26:21;;;;;;;15.05;1.90;;;9.90;99.90;;;;;;5046014;28;20444;-73
2023/05/17 07:28:47;;;;;;;11.80;2.50;;;9.90;99.90;;;;;;5050708;28;20116;-73
2023/05/17 07:31:13;;;;;;;10.80;1.70;;;9.90;99.90;;;;;;5034949;28;20044;-72
2023/05/17 07:33:38;;;;;;;11.25;2.17;;;9.90;99.90;;;;;;5056270;28;20393;-73
2023/05/17 07:36:05;;;;;;;12.55;2.13;;;10.00;99.90;;;;;;5042934;28;20511;-72
2023/05/17 07:38:31;;;;;;;18.10;2.05;;;10.00;99.90;;;;;;5044659;28;20431;-72
2023/05/17 07:40:56;;;;;;;12.88;2.13;;;10.00;99.90;;;;;;5042032;28;20048;-73
2023/05/17 07:43:22;;;;;;;13.98;2.50;;;10.00;99.90;;;;;;5042136;28;20478;-72
2023/05/17 07:45:48;;;;;;;9.57;1.98;;;10.10;99.90;;;;;;5058126;28;20505;-73
2023/05/17 07:48:13;;;;;;;12.75;2.42;;;10.10;99.90;;;;;;5050075;28;20044;-72
2023/05/17 07:50:40;;;;;;;17.60;3.10;;;10.10;99.90;;;;;;5049516;28;20043;-72
2023/05/17 07:53:06;;;;;;;14.40;1.80;;;10.10;99.90;;;;;;5050493;28;20053;-72
2023/05/17 07:55:31;;;;;;;11.05;2.05;;;10.20;99.90;;;;;;5035689;28;20383;-72
2023/05/17 07:57:57;;;;;;;12.65;2.20;;;10.20;99.90;;;;;;5047218;28;20076;-73
2023/05/17 08:00:23;;;;;;;13.18;2.50;;;10.20;99.90;;;;;;5040979;28;20044;-72
2023/05/17 08:02:49;;;;;;;14.77;2.55;;;10.30;99.90;;;;;;5040704;28;20055;-73
2023/05/17 08:05:15;;;;;;;12.13;1.95;;;10.30;99.90;;;;;;5045078;28;20371;-72
2023/05/17 08:07:41;;;;;;;15.75;2.38;;;10.30;99.90;;;;;;5035847;28;20044;-72
2023/05/17 08:10:07;;;;;;;13.73;2.13;;;10.40;99.90;;;;;;5055588;28;20099;-72
2023/05/17 08:12:32;;;;;;;10.95;2.20;;;10.40;99.90;;;;;;5049420;28;20045;-73
2023/05/17 08:14:58;;;;;;;10.60;2.42;;;10.60;99.90;;;;;;5049383;28;20043;-73
2023/05/17 08:17:24;;;;;;;13.82;2.53;;;10.70;99.90;;;;;;5049186;28;20120;-73
2023/05/17 08:19:49;;;;;;;13.93;2.85;;;10.70;99.90;;;;;;5055690;28;20033;-73
2023/05/17 08:22:15;;;;;;;12.68;2.10;;;10.80;99.90;;;;;;5058389;28;20117;-72
2023/05/17 08:24:43;;;;;;;13.63;2.47;;;10.80;99.90;;;;;;5035083;28;20041;-73
2023/05/17 08:27:09;;;;;;;12.43;2.47;;;10.80;99.90;;;;;;5042914;28;20094;-73
2023/05/17 08:29:36;;;;;;;14.52;2.58;;;10.90;99.90;;;;;;5052098;28;20049;-73
2023/05/17 08:32:02;;;;;;;13.02;2.40;;;10.90;99.90;;;;;;5051282;28;20393;-72
2023/05/17 08:34:27;;;;;;;12.73;2.22;;;10.90;99.90;;;;;;5050000;28;20045;-73
2023/05/17 08:36:53;;;;;;;12.50;2.50;;;10.80;99.90;;;;;;5039990;28;20041;-73
2023/05/17 08:39:19;;;;;;;11.57;2.65;;;10.80;99.90;;;;;;5034246;28;20398;-72
2023/05/17 08:41:47;;;;;;;11.80;2.17;;;10.90;99.90;;;;;;5037750;28;20447;-73
2023/05/17 08:44:15;;;;;;;10.18;1.70;;;10.90;99.90;;;;;;5022965;28;20099;-72
2023/05/17 08:46:42;;;;;;;14.20;1.83;;;10.90;99.90;;;;;;5040863;28;20086;-73
2023/05/17 08:49:11;;;;;;;11.52;2.38;;;10.90;99.90;;;;;;5038213;28;20069;-73
2023/05/17 08:51:38;;;;;;;12.10;2.08;;;10.90;99.90;;;;;;5036168;28;20048;-72
2023/05/17 08:54:04;;;;;;;12.05;2.00;;;11.10;99.90;;;;;;5032311;28;20049;-73
2023/05/17 08:56:31;;;;;;;12.20;1.80;;;11.10;99.90;;;;;;5046729;28;20045;-73
2023/05/17 08:58:58;;;;;;;9.30;2.10;;;11.20;99.90;;;;;;5066445;28;20045;-72
2023/05/17 09:01:24;;;;;;;13.93;1.90;;;11.40;99.90;;;;;;5048595;28;20052;-73
2023/05/17 09:03:49;;;;;;;9.60;2.20;;;11.30;99.90;;;;;;5046594;28;20048;-73
2023/05/17 09:06:24;;;;;;;11.77;1.60;;;11.30;99.90;;;;;;5038089;28;20037;-72
2023/05/17 09:08:53;;;;;;;11.43;1.70;;;11.30;99.90;;;;;;5047928;28;20037;-73
2023/05/17 09:11:27;;;;;;;7.85;1.30;;;11.20;99.90;;;;;;5049423;28;20385;-73
2023/05/17 09:13:53;;;;;;;11.73;2.13;;;11.40;99.90;;;;;;5048754;28;20116;-73
2023/05/17 09:16:20;;;;;;;8.52;1.52;;;11.40;99.90;;;;;;5045488;28;20148;-74
2023/05/17 09:18:57;;;;;;;11.75;1.95;;;11.40;99.90;;;;;;5051124;28;20048;-74
2023/05/17 09:21:24;;;;;;;10.63;2.25;;;11.50;99.90;;;;;;5048619;28;20036;-73
2023/05/17 09:23:53;;;;;;;9.80;1.83;;;11.50;99.90;;;;;;5051368;28;20138;-73
2023/05/17 09:26:20;;;;;;;10.43;1.80;;;11.70;99.90;;;;;;5035291;28;20046;-73
2023/05/17 09:28:47;;;;;;;14.07;1.92;;;11.80;99.90;;;;;;5049375;28;20048;-74
2023/05/17 09:31:15;;;;;;;8.00;1.90;;;11.90;99.90;;;;;;5070173;28;20036;-74
2023/05/17 09:33:50;;;;;;;11.48;2.03;;;11.80;99.90;;;;;;5053209;28;20571;-73
2023/05/17 09:36:17;;;;;;;11.38;2.05;;;11.70;99.90;;;;;;5054738;28;20044;-73
2023/05/17 09:39:00;;;;;;;9.23;1.60;;;11.70;99.90;;;;;;5044376;28;20608;-73
2023/05/17 09:41:27;;;;;;;7.25;1.42;;;11.50;99.90;;;;;;5050645;28;20045;-73
2023/05/17 09:43:56;;;;;;;11.10;1.75;;;11.60;99.90;;;;;;5047720;28;20041;-73
2023/05/17 09:46:22;;;;;;;8.55;1.80;;;11.80;99.90;;;;;;5045210;28;20508;-73
2023/05/17 09:48:55;;;;;;;8.90;1.70;;;12.20;99.90;;;;;;5047247;28;20032;-73
2023/05/17 09:51:35;;;;;;;10.02;1.60;;;12.20;99.90;;;;;;5053472;28;20047;-74
2023/05/17 09:54:01;;;;;;;11.73;1.92;;;12.10;99.90;;;;;;5053807;28;20049;-73
2023/05/17 09:56:30;;;;;;;14.00;1.70;;;12.10;99.90;;;;;;5053543;28;20056;-74
2023/05/17 09:59:00;;;;;;;16.02;1.80;;;12.00;99.90;;;;;;5054128;28;20099;-73
2023/05/17 10:01:29;;;;;;;12.15;1.95;;;12.10;99.90;;;;;;5056635;28;20379;-73
2023/05/17 10:03:59;;;;;;;11.60;1.60;;;12.20;99.90;;;;;;5054615;28;20045;-73
2023/05/17 10:06:27;;;;;;;10.63;2.00;;;12.30;99.90;;;;;;5052025;28;20041;-73
2023/05/17 10:08:56;;;;;;;9.02;1.70;;;12.10;99.90;;;;;;5034921;28;20124;-73
2023/05/17 10:11:27;;;;;;;10.77;1.45;;;12.20;99.90;;;;;;5046082;28;20076;-73
2023/05/17 10:14:21;;;;;;;8.27;1.50;;;12.20;99.90;;;;;;5053555;28;20563;-73
2023/05/17 10:16:48;;;;;;;13.30;1.85;;;12.30;99.90;;;;;;5062031;28;20053;-74
2023/05/17 10:19:14;;;;;;;12.00;1.95;;;12.40;99.90;;;;;;5035027;28;20056;-74
2023/05/17 10:21:42;;;;;;;8.32;1.40;;;12.40;99.90;;;;;;5056174;28;20072;-73
2023/05/17 10:24:10;;;;;;;7.07;1.50;;;12.50;99.90;;;;;;5040736;28;20044;-74
2023/05/17 10:26:37;;;;;;;9.27;1.88;;;12.40;99.90;;;;;;5046922;28;20090;-74
2023/05/17 10:29:04;;;;;;;7.65;1.35;;;12.20;99.90;;;;;;5054434;28;20069;-74
2023/05/17 10:31:35;;;;;;;10.05;1.65;;;12.20;99.90;;;;;;5054656;28;20079;-74
2023/05/17 10:34:01;;;;;;;8.70;1.40;;;12.30;99.90;;;;;;5048477;28;20048;-73
2023/05/17 10:36:28;;;;;;;7.40;1.35;;;12.50;99.90;;;;;;5053600;28;20045;-74
2023/05/17 10:38:54;;;;;;;7.78;1.55;;;12.60;99.90;;;;;;5055018;28;20045;-74
2023/05/17 10:41:23;;;;;;;9.32;1.60;;;12.60;99.90;;;;;;5052129;28;20051;-73
2023/05/17 10:43:50;;;;;;;10.93;2.33;;;12.40;99.90;;;;;;5053719;28;20394;-73
2023/05/17 10:46:20;;;;;;;5.80;1.20;;;12.30;99.90;;;;;;5053741;28;20033;-73
2023/05/17 10:48:49;;;;;;;8.70;1.63;;;12.30;99.90;;;;;;5052574;28;20094;-73
2023/05/17 10:51:25;;;;;;;13.07;1.50;;;12.30;99.90;;;;;;5042220;28;20091;-74
2023/05/17 10:54:11;;;;;;;7.72;1.63;;;12.30;99.90;;;;;;5047552;28;20103;-74
2023/05/17 10:56:46;;;;;;;11.63;1.65;;;12.40;99.90;;;;;;5034721;28;20072;-74
2023/05/17 10:59:26;;;;;;;6.90;1.52;;;12.40;99.90;;;;;;5037170;28;20044;-74
2023/05/17 11:02:07;;;;;;;10.70;1.58;;;12.50;99.90;;;;;;5033970;28;20124;-74
2023/05/17 11:04:38;;;;;;;8.00;1.40;;;12.60;99.90;;;;;;5053556;28;20077;-74
2023/05/17 11:07:16;;;;;;;7.53;1.60;;;12.40;95.60;;;;;;5038378;28;20051;-74
2023/05/17 11:09:53;;;;;;;7.13;1.50;;;12.30;99.90;;;;;;5052459;28;20120;-74
2023/05/17 11:12:40;;;;;;;11.00;1.58;;;12.60;99.90;;;;;;5037471;28;20045;-74
2023/05/17 11:15:11;;;;;;;10.00;1.70;;;12.50;99.50;;;;;;5037704;28;20379;-74
2023/05/17 11:17:43;;;;;;;7.93;1.60;;;12.60;99.90;;;;;;5049444;28;20512;-74
2023/05/17 11:20:11;;;;;;;8.18;1.38;;;12.60;99.10;;;;;;5063762;28;20037;-74
2023/05/17 11:22:42;;;;;;;8.25;1.60;;;12.70;99.90;;;;;;5053607;28;20045;-73
2023/05/17 11:25:12;;;;;;;5.60;1.50;;;12.60;99.00;;;;;;5037212;28;20511;-73
2023/05/17 11:27:46;;;;;;;8.70;2.25;;;12.70;99.70;;;;;;5047059;28;20040;-74
2023/05/17 11:30:18;;;;;;;8.52;1.42;;;13.00;99.90;;;;;;5049691;28;20044;-73
2023/05/17 11:32:52;;;;;;;8.93;1.85;;;12.90;99.90;;;;;;5047964;28;20068;-74
2023/05/17 11:35:23;;;;;;;7.85;1.77;;;12.90;99.90;;;;;;5038547;28;20029;-74
2023/05/17 11:37:52;;;;;;;9.32;1.70;;;13.00;99.90;;;;;;5052690;28;20057;-74
2023/05/17 11:40:26;;;;;;;8.10;1.42;;;12.80;99.90;;;;;;5048814;28;20038;-74
2023/05/17 11:43:15;;;;;;;10.93;1.88;;;12.70;99.90;;;;;;5049506;28;20040;-74
2023/05/17 11:45:51;;;;;;;8.65;1.60;;;12.80;99.90;;;;;;5049431;28;20485;-74
2023/05/17 11:48:20;;;;;;;10.18;1.85;;;13.00;99.90;;;;;;5043810;28;20047;-74
2023/05/17 11:50:47;;;;;;;9.48;1.77;;;13.20;99.90;;;;;;5044187;28;20056;-73
2023/05/17 11:53:14;;;;;;;8.45;1.55;;;13.00;99.90;;;;;;5050796;28;20060;-73
2023/05/17 11:55:47;;;;;;;6.45;1.67;;;12.90;99.90;;;;;;5040815;28;20473;-74
2023/05/17 11:58:19;;;;;;;11.07;1.80;;;12.80;99.90;;;;;;5045685;28;20048;-73
2023/05/17 12:00:51;;;;;;;10.27;1.90;;;12.80;99.90;;;;;;5055563;28;20116;-74
2023/05/17 12:03:18;;;;;;;11.85;1.60;;;12.70;99.90;;;;;;5044792;28;20095;-74
2023/05/17 12:05:46;;;;;;;10.43;1.85;;;12.80;99.90;;;;;;5047571;28;20068;-74
2023/05/17 12:08:17;;;;;;;9.20;1.80;;;12.70;99.90;;;;;;5053933;28;20115;-74
2023/05/17 12:10:45;;;;;;;13.80;2.05;;;12.80;99.90;;;;;;5058617;28;20112;-74
2023/05/17 12:13:10;;;;;;;13.18;2.55;;;12.80;99.90;;;;;;5041459;28;20045;-74
2023/05/17 12:15:37;;;;;;;6.55;1.27;;;12.80;99.90;;;;;;5047739;28;20194;-74
2023/05/17 12:18:03;;;;;;;9.25;1.58;;;12.80;99.90;;;;;;5051131;28;20033;-74
2023/05/17 12:20:31;;;;;;;10.95;1.92;;;12.60;99.50;;;;;;5042398;28;20037;-74
2023/05/17 12:22:57;;;;;;;7.50;1.83;;;12.60;99.90;;;;;;5051965;28;20049;-74
2023/05/17 12:25:28;;;;;;;8.15;1.60;;;12.60;97.50;;;;;;5034986;28;20040;-74
2023/05/17 12:28:12;;;;;;;8.60;1.58;;;12.80;99.90;;;;;;5042899;28;20456;-74
2023/05/17 12:30:38;;;;;;;9.85;1.92;;;13.00;99.90;;;;;;5033918;28;20045;-74
2023/05/17 12:33:06;;;;;;;9.23;1.77;;;12.90;99.90;;;;;;5048256;28;20045;-73
2023/05/17 12:35:31;;;;;;;10.90;1.65;;;12.80;99.90;;;;;;5047531;28;20501;-74
2023/05/17 12:37:58;;;;;;;8.77;1.48;;;12.80;99.90;;;;;;5053023;28;20068;-74
2023/05/17 12:40:23;;;;;;;9.73;1.65;;;12.90;99.90;;;;;;5051430;28;20041;-73
2023/05/17 12:42:49;;;;;;;9.57;1.90;;;12.90;99.20;;;;;;5023320;28;20037;-73
2023/05/17 12:45:15;;;;;;;10.43;1.60;;;12.90;97.80;;;;;;5060179;28;20040;-74
2023/05/17 12:47:42;;;;;;;11.80;2.03;;;12.80;98.70;;;;;;5046757;28;20099;-73